Time,TemperatureF,DewpointF,PressureIn,WindDirection,WindDirectionDegrees,WindSpeedMPH,WindSpeedGustMPH,Humidity,HourlyPrecipIn,Conditions,Clouds,dailyrainin,SoftwareType,DateUTC
2013-01-30 00:01:00,34.2,34.2,0.00,ENE,62,0.0,0.0,100,0.00,OVC,OVC,0.00,WeatherDisplay:10.37,2013-01-30 05:01:00,
2013-01-30 00:02:00,34.2,34.2,0.00,ENE,62,0.0,0.0,100,0.00,OVC,OVC,0.00,WeatherDisplay:10.37,2013-01-30 05:02:00,
2013-01-30 00:03:00,34.2,34.2,0.00,ENE,62,0.0,0.0,100,0.00,OVC,OVC,0.00,WeatherDisplay:10.37,2013-01-30 05:03:00,
2013-01-30 00:08:00,34.2,34.2,0.00,ENE,62,0.0,0.0,100,0.00,OVC,OVC,0.00,WeatherDisplay:10.37,2013-01-30 05:08:00,
2013-01-30 00:14:00,34.2,34.2,0.00,ENE,62,0.0,0.0,100,0.00,OVC,OVC,0.00,WeatherDisplay:10.37,2013-01-30 05:14:00,
2013-01-30 00:19:00,34.2,34.2,0.00,ENE,62,0.0,0.0,100,0.00,OVC,OVC,0.00,WeatherDisplay:10.37,2013-01-30 05:19:00,
2013-01-30 00:24:00,34.2,34.2,0.00,ENE,62,0.0,0.0,100,0.00,OVC,OVC,0.00,WeatherDisplay:10.37,2013-01-30 05:24:00,
2013-01-30 00:29:00,34.2,34.2,0.00,ENE,62,0.0,0.0,100,0.00,OVC,OVC,0.00,WeatherDisplay:10.37,2013-01-30 05:29:00,
2013-01-30 00:35:00,34.2,34.2,0.00,ENE,62,0.0,0.0,100,0.00,OVC,OVC,0.00,WeatherDisplay:10.37,2013-01-30 05:35:00,
2013-01-30 00:40:00,34.2,34.2,0.00,ENE,62,0.0,0.0,100,0.00,OVC,OVC,0.00,WeatherDisplay:10.37,2013-01-30 05:40:00,
2013-01-30 00:45:00,34.2,34.2,0.00,ENE,62,0.0,0.0,100,0.00,OVC,OVC,0.00,WeatherDisplay:10.37,2013-01-30 05:45:00,
2013-01-30 00:50:00,34.2,34.2,0.00,ENE,62,0.0,0.0,100,0.00,OVC,OVC,0.00,WeatherDisplay:10.37,2013-01-30 05:50:00,
2013-01-30 00:56:00,34.2,34.2,0.00,ENE,62,0.0,0.0,100,0.00,OVC,OVC,0.00,WeatherDisplay:10.37,2013-01-30 05:56:00,
2013-01-30 01:01:00,34.2,34.2,0.00,ENE,62,0.0,0.0,100,0.00,OVC,OVC,0.00,WeatherDisplay:10.37,2013-01-30 06:01:00,
2013-01-30 01:06:00,34.2,34.2,0.00,ENE,62,0.0,0.0,100,0.00,OVC,OVC,0.00,WeatherDisplay:10.37,2013-01-30 06:06:00,
2013-01-30 01:11:00,34.3,34.3,0.00,ENE,62,0.0,0.0,100,0.00,OVC,OVC,0.00,WeatherDisplay:10.37,2013-01-30 06:11:00,
2013-01-30 01:17:00,34.3,34.3,0.00,ENE,62,0.0,0.0,100,0.00,OVC,OVC,0.00,WeatherDisplay:10.37,2013-01-30 06:17:00,
2013-01-30 01:22:00,34.3,34.3,0.00,ENE,62,0.0,0.0,100,0.00,OVC,OVC,0.00,WeatherDisplay:10.37,2013-01-30 06:22:00,
2013-01-30 01:27:00,34.3,34.3,0.00,ENE,62,0.0,0.0,100,0.00,OVC,OVC,0.00,WeatherDisplay:10.37,2013-01-30 06:27:00,
2013-01-30 01:32:00,34.3,34.3,0.00,ENE,62,0.0,0.0,100,0.00,OVC,OVC,0.00,WeatherDisplay:10.37,2013-01-30 06:32:00,
2013-01-30 01:38:00,34.3,34.3,0.00,ENE,62,0.0,0.0,100,0.00,OVC,OVC,0.00,WeatherDisplay:10.37,2013-01-30 06:38:00,
2013-01-30 01:43:00,34.2,34.2,0.00,ENE,62,0.0,0.0,100,0.00,OVC,OVC,0.00,WeatherDisplay:10.37,2013-01-30 06:43:00,
2013-01-30 01:48:00,34.3,34.3,0.00,ENE,62,0.0,0.0,100,0.00,OVC,OVC,0.00,WeatherDisplay:10.37,2013-01-30 06:48:00,
2013-01-30 01:53:00,34.3,34.3,0.00,ENE,62,0.0,0.0,100,0.00,OVC,OVC,0.00,WeatherDisplay:10.37,2013-01-30 06:53:00,
2013-01-30 01:58:00,34.3,34.3,0.00,ENE,62,0.0,0.0,100,0.00,OVC,OVC,0.00,WeatherDisplay:10.37,2013-01-30 06:58:00,
2013-01-30 02:04:00,34.3,34.3,0.00,ENE,62,0.0,0.0,100,0.00,OVC,OVC,0.00,WeatherDisplay:10.37,2013-01-30 07:04:00,
2013-01-30 02:09:00,34.3,34.3,0.00,ENE,62,0.0,0.0,100,0.00,OVC,OVC,0.00,WeatherDisplay:10.37,2013-01-30 07:09:00,
2013-01-30 02:14:00,34.3,34.3,0.00,ENE,62,0.0,0.0,100,0.00,OVC,OVC,0.00,WeatherDisplay:10.37,2013-01-30 07:14:00,
2013-01-30 02:20:00,34.3,34.3,0.00,ENE,62,0.0,0.0,100,0.00,OVC,OVC,0.00,WeatherDisplay:10.37,2013-01-30 07:20:00,
2013-01-30 02:25:00,34.3,34.3,0.00,ENE,62,0.0,0.0,100,0.00,OVC,OVC,0.00,WeatherDisplay:10.37,2013-01-30 07:25:00,
2013-01-30 02:30:00,34.4,34.4,0.00,ENE,62,0.0,0.0,100,0.00,OVC,OVC,0.00,WeatherDisplay:10.37,2013-01-30 07:30:00,
2013-01-30 02:35:00,34.4,34.4,0.00,ENE,62,0.0,0.0,100,0.00,OVC,OVC,0.00,WeatherDisplay:10.37,2013-01-30 07:35:00,
2013-01-30 02:41:00,34.3,34.3,0.00,ENE,62,0.0,0.0,100,0.00,OVC,OVC,0.00,WeatherDisplay:10.37,2013-01-30 07:41:00,
2013-01-30 02:46:00,34.3,34.3,0.00,ENE,62,0.0,0.0,100,0.00,OVC,OVC,0.00,WeatherDisplay:10.37,2013-01-30 07:46:00,
2013-01-30 02:51:00,34.4,34.4,0.00,ENE,62,0.0,0.0,100,0.00,OVC,OVC,0.00,WeatherDisplay:10.37,2013-01-30 07:51:00,
2013-01-30 02:56:00,34.3,34.3,0.00,ENE,62,0.0,0.0,100,0.00,OVC,OVC,0.00,WeatherDisplay:10.37,2013-01-30 07:56:00,
2013-01-30 03:01:00,34.3,34.3,0.00,ENE,62,0.0,0.0,100,0.00,OVC,OVC,0.00,WeatherDisplay:10.37,2013-01-30 08:01:00,
2013-01-30 03:07:00,34.4,34.4,0.00,ENE,62,0.0,0.0,100,0.00,OVC,OVC,0.00,WeatherDisplay:10.37,2013-01-30 08:07:00,
2013-01-30 03:12:00,34.4,34.4,0.00,NE,42,0.0,0.0,100,0.00,OVC,OVC,0.00,WeatherDisplay:10.37,2013-01-30 08:12:00,
2013-01-30 03:17:00,34.4,34.4,0.00,NE,42,0.0,0.0,100,0.00,OVC,OVC,0.00,WeatherDisplay:10.37,2013-01-30 08:17:00,
2013-01-30 03:22:00,34.4,34.4,0.00,NE,42,0.0,0.0,100,0.00,OVC,OVC,0.00,WeatherDisplay:10.37,2013-01-30 08:22:00,
2013-01-30 03:28:00,34.4,34.4,0.00,NE,42,0.0,0.0,100,0.00,OVC,OVC,0.00,WeatherDisplay:10.37,2013-01-30 08:28:00,
2013-01-30 03:33:00,34.4,34.4,0.00,NE,42,0.0,0.0,100,0.00,OVC,OVC,0.00,WeatherDisplay:10.37,2013-01-30 08:33:00,
2013-01-30 03:38:00,34.4,34.4,0.00,NE,42,0.0,0.0,100,0.00,OVC,OVC,0.00,WeatherDisplay:10.37,2013-01-30 08:38:00,
2013-01-30 03:43:00,34.5,34.5,0.00,NE,42,0.0,0.0,100,0.00,OVC,OVC,0.00,WeatherDisplay:10.37,2013-01-30 08:43:00,
2013-01-30 03:48:00,34.5,34.5,0.00,NE,42,0.0,0.0,100,0.00,OVC,OVC,0.00,WeatherDisplay:10.37,2013-01-30 08:48:00,
2013-01-30 03:54:00,34.5,34.5,0.00,NE,42,0.0,0.0,100,0.00,OVC,OVC,0.00,WeatherDisplay:10.37,2013-01-30 08:54:00,
2013-01-30 03:59:00,34.6,34.6,0.00,NE,42,0.0,0.0,100,0.00,OVC,OVC,0.00,WeatherDisplay:10.37,2013-01-30 08:59:00,
2013-01-30 04:04:00,34.5,34.5,0.00,NE,42,0.0,0.0,100,0.00,OVC,OVC,0.00,WeatherDisplay:10.37,2013-01-30 09:04:00,
2013-01-30 04:10:00,34.6,34.6,0.00,NE,42,0.0,0.0,100,0.00,OVC,OVC,0.00,WeatherDisplay:10.37,2013-01-30 09:10:00,
2013-01-30 04:15:00,34.6,34.6,0.00,NE,42,0.0,0.0,100,0.00,OVC,OVC,0.00,WeatherDisplay:10.37,2013-01-30 09:15:00,
2013-01-30 04:20:00,34.7,34.7,0.00,NE,42,0.0,0.0,100,0.00,OVC,OVC,0.00,WeatherDisplay:10.37,2013-01-30 09:20:00,
2013-01-30 04:25:00,34.7,34.7,0.00,NE,42,0.0,0.0,100,0.00,OVC,OVC,0.00,WeatherDisplay:10.37,2013-01-30 09:25:00,
2013-01-30 04:31:00,34.7,34.7,0.00,NE,42,0.0,0.0,100,0.00,OVC,OVC,0.00,WeatherDisplay:10.37,2013-01-30 09:31:00,
2013-01-30 04:36:00,34.7,34.7,0.00,NE,42,0.0,0.0,100,0.00,OVC,OVC,0.00,WeatherDisplay:10.37,2013-01-30 09:36:00,
2013-01-30 04:41:00,34.8,34.8,0.00,NE,42,0.0,0.0,100,0.00,OVC,OVC,0.00,WeatherDisplay:10.37,2013-01-30 09:41:00,
2013-01-30 04:46:00,34.8,34.8,0.00,NE,42,0.0,0.0,100,0.00,OVC,OVC,0.00,WeatherDisplay:10.37,2013-01-30 09:46:00,
2013-01-30 04:51:00,34.8,34.8,0.00,NE,42,0.0,0.0,100,0.00,OVC,OVC,0.00,WeatherDisplay:10.37,2013-01-30 09:51:00,
2013-01-30 04:57:00,34.8,34.8,0.00,NE,42,0.0,0.0,100,0.00,OVC,OVC,0.00,WeatherDisplay:10.37,2013-01-30 09:57:00,
2013-01-30 05:02:00,34.9,34.9,0.00,NE,42,0.0,0.0,100,0.00,OVC,OVC,0.00,WeatherDisplay:10.37,2013-01-30 10:02:00,
2013-01-30 05:07:00,35.0,35.0,0.00,NE,42,0.0,0.0,100,0.00,OVC,OVC,0.00,WeatherDisplay:10.37,2013-01-30 10:07:00,
2013-01-30 05:12:00,35.1,35.1,0.00,NE,42,0.0,0.0,100,0.00,OVC,OVC,0.00,WeatherDisplay:10.37,2013-01-30 10:12:00,
2013-01-30 05:17:00,35.2,35.2,0.00,NE,42,0.0,0.0,100,0.00,OVC,OVC,0.00,WeatherDisplay:10.37,2013-01-30 10:17:00,
2013-01-30 05:22:00,35.4,35.4,0.00,NNE,27,0.0,0.0,100,0.00,OVC,OVC,0.00,WeatherDisplay:10.37,2013-01-30 10:22:00,
2013-01-30 05:27:00,35.7,35.7,0.00,NNE,27,0.0,0.0,100,0.00,OVC,OVC,0.00,WeatherDisplay:10.37,2013-01-30 10:27:00,
2013-01-30 05:32:00,35.8,35.8,0.00,NNE,13,0.0,0.0,100,0.00,OVC,OVC,0.00,WeatherDisplay:10.37,2013-01-30 10:32:00,
2013-01-30 05:37:00,36.0,36.0,0.00,North,1,0.0,0.1,100,0.00,OVC,OVC,0.00,WeatherDisplay:10.37,2013-01-30 10:37:00,
2013-01-30 05:43:00,36.3,36.3,0.00,North,1,0.0,0.0,100,0.00,OVC,OVC,0.00,WeatherDisplay:10.37,2013-01-30 10:43:00,
2013-01-30 05:48:00,36.4,36.4,0.00,North,1,0.0,0.0,100,0.00,OVC,OVC,0.00,WeatherDisplay:10.37,2013-01-30 10:48:00,
2013-01-30 05:53:00,36.5,36.5,0.00,NNE,18,1.2,1.2,100,0.00,OVC,OVC,0.00,WeatherDisplay:10.37,2013-01-30 10:53:00,
2013-01-30 05:58:00,36.7,36.7,0.00,WSW,244,0.0,0.0,100,0.00,OVC,OVC,0.00,WeatherDisplay:10.37,2013-01-30 10:58:00,
2013-01-30 06:03:00,36.9,36.9,0.00,North,359,1.2,1.2,100,0.00,OVC,OVC,0.00,WeatherDisplay:10.37,2013-01-30 11:03:00,
2013-01-30 06:09:00,37.1,37.1,0.00,North,359,0.0,0.0,100,0.00,OVC,OVC,0.00,WeatherDisplay:10.37,2013-01-30 11:09:00,
2013-01-30 06:14:00,37.3,37.3,0.00,North,359,0.0,0.0,100,0.00,OVC,OVC,0.00,WeatherDisplay:10.37,2013-01-30 11:14:00,
2013-01-30 06:19:00,37.4,37.4,0.00,North,359,0.0,0.3,100,0.00,OVC,OVC,0.00,WeatherDisplay:10.37,2013-01-30 11:19:00,
2013-01-30 06:25:00,37.6,37.6,0.00,North,359,0.0,0.0,100,0.00,OVC,OVC,0.00,WeatherDisplay:10.37,2013-01-30 11:25:00,
2013-01-30 06:30:00,37.7,37.7,0.00,NW,311,1.7,1.7,100,0.00,OVC,OVC,0.00,WeatherDisplay:10.37,2013-01-30 11:30:00,
2013-01-30 06:35:00,37.9,37.9,0.00,North,357,0.0,0.0,100,0.00,OVC,OVC,0.00,WeatherDisplay:10.37,2013-01-30 11:35:00,
2013-01-30 06:40:00,38.0,38.0,0.00,West,263,0.0,0.0,100,0.00,OVC,OVC,0.00,WeatherDisplay:10.37,2013-01-30 11:40:00,
2013-01-30 06:45:00,38.1,38.1,0.00,WNW,291,1.0,2.0,100,0.00,OVC,OVC,0.00,WeatherDisplay:10.37,2013-01-30 11:45:00,
2013-01-30 06:50:00,38.2,38.2,0.00,NNE,16,0.0,0.0,100,0.00,OVC,OVC,0.00,WeatherDisplay:10.37,2013-01-30 11:50:00,
2013-01-30 06:56:00,38.3,38.3,0.00,NNE,21,0.0,0.2,100,0.00,OVC,OVC,0.00,WeatherDisplay:10.37,2013-01-30 11:56:00,
2013-01-30 07:01:00,38.4,38.4,0.00,East,86,0.0,0.0,100,0.00,OVC,OVC,0.00,WeatherDisplay:10.37,2013-01-30 12:01:00,
2013-01-30 07:06:00,38.5,38.5,0.00,East,86,0.0,0.0,100,0.00,OVC,OVC,0.00,WeatherDisplay:10.37,2013-01-30 12:06:00,
2013-01-30 07:12:00,38.5,38.5,0.00,SW,220,0.0,0.0,100,0.00,OVC,OVC,0.00,WeatherDisplay:10.37,2013-01-30 12:12:00,
2013-01-30 07:17:00,38.7,38.7,0.00,NE,54,3.5,3.5,100,0.00,OVC,OVC,0.00,WeatherDisplay:10.37,2013-01-30 12:17:00,
2013-01-30 07:22:00,38.8,38.8,0.00,NNE,27,1.2,0.0,100,0.00,OVC,OVC,0.00,WeatherDisplay:10.37,2013-01-30 12:22:00,
2013-01-30 07:28:00,39.0,39.0,0.00,NW,318,0.0,0.0,100,0.00,OVC,OVC,0.00,WeatherDisplay:10.37,2013-01-30 12:28:00,
2013-01-30 07:33:00,39.0,39.0,0.00,NW,318,0.0,0.0,100,0.00,OVC,OVC,0.00,WeatherDisplay:10.37,2013-01-30 12:33:00,
2013-01-30 07:38:00,39.2,39.2,0.00,NW,325,2.3,0.0,100,0.00,OVC,OVC,0.00,WeatherDisplay:10.37,2013-01-30 12:38:00,
2013-01-30 07:43:00,39.3,39.3,0.00,NNE,30,0.0,0.0,100,0.00,OVC,OVC,0.00,WeatherDisplay:10.37,2013-01-30 12:43:00,
2013-01-30 07:49:00,39.4,39.4,0.00,NNE,30,0.0,0.0,100,0.00,OVC,OVC,0.00,WeatherDisplay:10.37,2013-01-30 12:49:00,
2013-01-30 07:54:00,39.5,39.5,0.00,NNE,30,0.0,0.0,100,0.00,OVC,OVC,0.00,WeatherDisplay:10.37,2013-01-30 12:54:00,
2013-01-30 07:59:00,39.7,39.7,0.00,NNE,30,0.0,0.0,100,0.00,OVC,OVC,0.00,WeatherDisplay:10.37,2013-01-30 12:59:00,
2013-01-30 08:04:00,39.9,39.9,0.00,NNE,30,0.0,0.0,100,0.01,RA,RA,0.01,WeatherDisplay:10.37,2013-01-30 13:04:00,
2013-01-30 08:09:00,40.1,40.1,0.00,North,4,1.2,0.0,100,0.01,RA,RA,0.01,WeatherDisplay:10.37,2013-01-30 13:09:00,
2013-01-30 08:14:00,40.3,40.3,0.00,North,359,0.0,0.4,100,0.01,OVC,OVC,0.01,WeatherDisplay:10.37,2013-01-30 13:14:00,
2013-01-30 08:19:00,40.5,40.5,0.00,SW,223,1.2,1.2,100,0.01,OVC,OVC,0.01,WeatherDisplay:10.37,2013-01-30 13:19:00,
2013-01-30 08:25:00,40.7,40.7,0.00,ENE,78,0.7,0.7,100,0.01,OVC,OVC,0.01,WeatherDisplay:10.37,2013-01-30 13:25:00,
2013-01-30 08:30:00,41.0,41.0,0.00,ENE,78,0.0,0.0,100,0.01,OVC,OVC,0.01,WeatherDisplay:10.37,2013-01-30 13:30:00,
2013-01-30 08:35:00,41.3,41.3,0.00,NNE,20,0.0,0.0,100,0.01,OVC,OVC,0.01,WeatherDisplay:10.37,2013-01-30 13:35:00,
2013-01-30 08:40:00,41.6,41.6,0.00,ENE,61,0.0,0.0,100,0.01,OVC,OVC,0.01,WeatherDisplay:10.37,2013-01-30 13:40:00,
2013-01-30 08:45:00,41.8,41.8,0.00,WSW,244,0.0,0.0,100,0.01,OVC,OVC,0.01,WeatherDisplay:10.37,2013-01-30 13:45:00,
2013-01-30 08:51:00,42.0,42.0,0.00,WSW,244,0.0,0.0,100,0.01,OVC,OVC,0.01,WeatherDisplay:10.37,2013-01-30 13:51:00,
2013-01-30 08:56:00,42.3,42.3,0.00,WSW,244,0.0,0.0,100,0.01,OVC,OVC,0.01,WeatherDisplay:10.37,2013-01-30 13:56:00,
2013-01-30 09:01:00,42.5,42.5,0.00,SSW,205,2.3,2.3,100,0.01,OVC,OVC,0.01,WeatherDisplay:10.37,2013-01-30 14:01:00,
2013-01-30 09:06:00,42.8,42.8,0.00,NNE,28,1.6,1.6,100,0.00,OVC,OVC,0.01,WeatherDisplay:10.37,2013-01-30 14:06:00,
2013-01-30 09:11:00,43.2,43.2,0.00,NNE,16,5.8,5.8,100,0.00,OVC,OVC,0.01,WeatherDisplay:10.37,2013-01-30 14:11:00,
2013-01-30 09:16:00,43.4,43.4,0.00,NNW,346,0.0,6.0,100,0.00,OVC,OVC,0.01,WeatherDisplay:10.37,2013-01-30 14:16:00,
2013-01-30 09:22:00,43.6,43.6,0.00,SSW,193,0.0,0.0,100,0.00,OVC,OVC,0.01,WeatherDisplay:10.37,2013-01-30 14:22:00,
2013-01-30 09:27:00,44.0,44.0,0.00,North,360,1.6,0.0,100,0.00,OVC,OVC,0.01,WeatherDisplay:10.37,2013-01-30 14:27:00,
2013-01-30 09:32:00,44.4,44.4,0.00,North,356,1.2,1.2,100,0.00,OVC,OVC,0.01,WeatherDisplay:10.37,2013-01-30 14:32:00,
2013-01-30 09:37:00,44.7,44.7,0.00,North,356,0.0,0.0,100,0.01,RA,RA,0.02,WeatherDisplay:10.37,2013-01-30 14:37:00,
2013-01-30 09:42:00,45.0,45.0,0.00,NE,40,2.3,2.3,100,0.01,RA,RA,0.02,WeatherDisplay:10.37,2013-01-30 14:42:00,
2013-01-30 09:47:00,45.3,45.3,0.00,NNW,342,0.0,0.0,100,0.01,OVC,OVC,0.02,WeatherDisplay:10.37,2013-01-30 14:47:00,
2013-01-30 09:52:00,45.6,45.6,0.00,NW,316,2.3,2.3,100,0.01,OVC,OVC,0.02,WeatherDisplay:10.37,2013-01-30 14:52:00,
2013-01-30 09:57:00,45.9,45.9,0.00,NE,56,4.6,4.6,100,0.01,OVC,OVC,0.02,WeatherDisplay:10.37,2013-01-30 14:57:00,
2013-01-30 10:03:00,46.2,46.2,0.00,NNE,24,5.8,5.8,100,0.01,OVC,OVC,0.02,WeatherDisplay:10.37,2013-01-30 15:03:00,
2013-01-30 10:08:00,46.5,46.5,0.00,NE,44,0.0,0.0,100,0.01,OVC,OVC,0.02,WeatherDisplay:10.37,2013-01-30 15:08:00,
2013-01-30 10:13:00,46.8,46.8,0.00,NE,44,0.0,0.0,100,0.01,OVC,OVC,0.02,WeatherDisplay:10.37,2013-01-30 15:13:00,
2013-01-30 10:18:00,47.0,47.0,0.00,North,1,4.6,4.6,100,0.01,OVC,OVC,0.02,WeatherDisplay:10.37,2013-01-30 15:18:00,
2013-01-30 10:23:00,47.1,47.1,0.00,SW,215,2.3,2.3,100,0.01,OVC,OVC,0.02,WeatherDisplay:10.37,2013-01-30 15:23:00,
2013-01-30 10:28:00,47.3,47.3,0.00,SW,215,0.0,0.0,100,0.02,RA,RA,0.03,WeatherDisplay:10.37,2013-01-30 15:28:00,
2013-01-30 10:33:00,47.5,47.5,0.00,SW,215,0.0,0.0,100,0.02,RA,RA,0.03,WeatherDisplay:10.37,2013-01-30 15:33:00,
2013-01-30 10:38:00,47.6,47.6,0.00,West,265,2.3,0.0,100,0.01,OVC,OVC,0.03,WeatherDisplay:10.37,2013-01-30 15:38:00,
2013-01-30 10:44:00,47.7,47.7,0.00,West,265,0.0,0.0,100,0.01,OVC,OVC,0.03,WeatherDisplay:10.37,2013-01-30 15:44:00,
2013-01-30 10:49:00,47.9,47.9,0.00,NNE,16,2.3,2.3,100,0.01,OVC,OVC,0.03,WeatherDisplay:10.37,2013-01-30 15:49:00,
2013-01-30 10:54:00,48.1,48.1,0.00,NNE,16,0.0,0.0,100,0.01,OVC,OVC,0.03,WeatherDisplay:10.37,2013-01-30 15:54:00,
2013-01-30 10:59:00,48.2,48.2,0.00,North,360,0.0,0.0,100,0.01,OVC,OVC,0.03,WeatherDisplay:10.37,2013-01-30 15:59:00,
2013-01-30 11:04:00,48.4,48.4,0.00,NW,323,1.2,1.2,100,0.01,OVC,OVC,0.03,WeatherDisplay:10.37,2013-01-30 16:04:00,
2013-01-30 11:09:00,48.5,48.5,0.00,WNW,302,1.2,1.2,100,0.01,OVC,OVC,0.03,WeatherDisplay:10.37,2013-01-30 16:09:00,
2013-01-30 11:14:00,48.8,48.8,0.00,North,11,3.5,3.5,100,0.01,OVC,OVC,0.03,WeatherDisplay:10.37,2013-01-30 16:14:00,
2013-01-30 11:20:00,49.1,49.1,0.00,NE,41,3.5,0.0,100,0.01,OVC,OVC,0.03,WeatherDisplay:10.37,2013-01-30 16:20:00,
2013-01-30 11:25:00,49.3,49.3,0.00,WSW,258,0.0,0.0,100,0.00,OVC,OVC,0.03,WeatherDisplay:10.37,2013-01-30 16:25:00,
2013-01-30 11:30:00,49.5,49.5,0.00,WSW,237,2.3,2.3,100,0.00,OVC,OVC,0.03,WeatherDisplay:10.37,2013-01-30 16:30:00,
2013-01-30 11:35:00,49.7,49.7,0.00,NNE,14,4.6,4.6,100,0.00,OVC,OVC,0.03,WeatherDisplay:10.37,2013-01-30 16:35:00,
2013-01-30 11:40:00,49.7,49.7,0.00,West,268,2.3,2.3,100,0.00,OVC,OVC,0.03,WeatherDisplay:10.37,2013-01-30 16:40:00,
2013-01-30 11:45:00,50.0,50.0,0.00,NW,325,1.2,0.0,100,0.00,OVC,OVC,0.03,WeatherDisplay:10.37,2013-01-30 16:45:00,
2013-01-30 11:50:00,50.2,50.2,0.00,North,6,3.5,3.5,100,0.00,OVC,OVC,0.03,WeatherDisplay:10.37,2013-01-30 16:50:00,
2013-01-30 11:56:00,50.3,50.3,0.00,North,11,1.2,0.0,100,0.00,OVC,OVC,0.03,WeatherDisplay:10.37,2013-01-30 16:56:00,
2013-01-30 12:01:00,50.1,50.1,0.00,NNE,16,1.2,0.0,100,0.00,OVC,OVC,0.03,WeatherDisplay:10.37,2013-01-30 17:01:00,
2013-01-30 12:06:00,50.7,50.7,0.00,WSW,237,0.0,0.0,100,0.00,OVC,OVC,0.03,WeatherDisplay:10.37,2013-01-30 17:06:00,
2013-01-30 12:12:00,50.9,50.9,0.00,NE,35,0.0,0.0,100,0.00,OVC,OVC,0.03,WeatherDisplay:10.37,2013-01-30 17:12:00,
2013-01-30 12:17:00,51.1,51.1,0.00,ENE,58,0.0,0.0,100,0.00,OVC,OVC,0.03,WeatherDisplay:10.37,2013-01-30 17:17:00,
2013-01-30 12:22:00,51.3,51.3,0.00,SW,223,3.5,3.5,100,0.00,OVC,OVC,0.03,WeatherDisplay:10.37,2013-01-30 17:22:00,
2013-01-30 12:27:00,51.5,51.5,0.00,North,8,1.2,0.0,100,0.00,OVC,OVC,0.03,WeatherDisplay:10.37,2013-01-30 17:27:00,
2013-01-30 12:32:00,51.6,51.6,0.00,North,6,3.5,3.5,100,0.00,OVC,OVC,0.03,WeatherDisplay:10.37,2013-01-30 17:32:00,
2013-01-30 12:37:00,51.8,51.8,0.00,North,6,4.6,4.6,100,0.00,OVC,OVC,0.03,WeatherDisplay:10.37,2013-01-30 17:37:00,
2013-01-30 12:43:00,52.0,52.0,0.00,NNE,23,1.2,0.0,100,0.00,OVC,OVC,0.03,WeatherDisplay:10.37,2013-01-30 17:43:00,
2013-01-30 12:48:00,52.1,52.1,0.00,North,10,4.6,4.6,100,0.00,OVC,OVC,0.03,WeatherDisplay:10.37,2013-01-30 17:48:00,
2013-01-30 12:53:00,52.4,52.4,0.00,ENE,73,2.3,2.3,100,0.00,OVC,OVC,0.03,WeatherDisplay:10.37,2013-01-30 17:53:00,
2013-01-30 12:58:00,52.6,52.6,0.00,WSW,246,2.3,2.3,100,0.00,OVC,OVC,0.03,WeatherDisplay:10.37,2013-01-30 17:58:00,
2013-01-30 13:04:00,52.8,52.8,0.00,NNE,28,5.8,5.8,100,0.00,OVC,OVC,0.03,WeatherDisplay:10.37,2013-01-30 18:04:00,
2013-01-30 13:09:00,53.1,53.1,0.00,WNW,292,2.3,2.3,100,0.00,OVC,OVC,0.03,WeatherDisplay:10.37,2013-01-30 18:09:00,
2013-01-30 13:14:00,53.3,53.3,0.00,WNW,296,6.9,6.9,100,0.00,OVC,OVC,0.03,WeatherDisplay:10.37,2013-01-30 18:14:00,
2013-01-30 13:19:00,53.5,53.5,0.00,ENE,59,2.3,2.3,100,0.00,OVC,OVC,0.03,WeatherDisplay:10.37,2013-01-30 18:19:00,
2013-01-30 13:25:00,53.6,53.6,0.00,North,6,6.9,6.9,100,0.00,OVC,OVC,0.03,WeatherDisplay:10.37,2013-01-30 18:25:00,
2013-01-30 13:30:00,53.8,53.8,0.00,SSE,167,6.9,6.9,100,0.00,OVC,OVC,0.03,WeatherDisplay:10.37,2013-01-30 18:30:00,
2013-01-30 13:35:00,54.0,54.0,0.00,WNW,296,4.1,4.1,100,0.00,OVC,OVC,0.03,WeatherDisplay:10.37,2013-01-30 18:35:00,
2013-01-30 13:40:00,54.2,54.2,0.00,NNE,25,6.9,6.9,100,0.00,OVC,OVC,0.03,WeatherDisplay:10.37,2013-01-30 18:40:00,
2013-01-30 13:45:00,54.5,54.5,0.00,NE,48,8.1,8.1,100,0.00,OVC,OVC,0.03,WeatherDisplay:10.37,2013-01-30 18:45:00,
2013-01-30 13:50:00,54.8,54.8,0.00,SSW,208,16.0,16.0,100,0.00,OVC,OVC,0.03,WeatherDisplay:10.37,2013-01-30 18:50:00,
2013-01-30 13:55:00,55.0,55.0,0.00,WSW,243,14.8,14.8,100,0.00,OVC,OVC,0.03,WeatherDisplay:10.37,2013-01-30 18:55:00,
2013-01-30 14:00:00,55.1,55.1,0.00,North,3,10.4,10.4,100,0.00,OVC,OVC,0.03,WeatherDisplay:10.37,2013-01-30 19:00:00,
2013-01-30 14:05:00,55.0,55.0,0.00,West,268,15.0,15.0,100,0.00,OVC,OVC,0.03,WeatherDisplay:10.37,2013-01-30 19:05:00,
2013-01-30 14:11:00,55.4,55.4,0.00,NNE,24,5.8,5.8,100,0.00,OVC,OVC,0.03,WeatherDisplay:10.37,2013-01-30 19:11:00,
2013-01-30 14:16:00,55.5,55.5,0.00,East,92,10.4,10.4,100,0.00,OVC,OVC,0.03,WeatherDisplay:10.37,2013-01-30 19:16:00,
2013-01-30 14:21:00,55.6,55.6,0.00,NNE,16,6.9,6.9,100,0.00,OVC,OVC,0.03,WeatherDisplay:10.37,2013-01-30 19:21:00,
2013-01-30 14:26:00,55.7,55.7,0.00,NNE,17,20.7,20.7,100,0.00,OVC,OVC,0.03,WeatherDisplay:10.37,2013-01-30 19:26:00,
2013-01-30 14:31:00,55.8,55.8,0.00,NW,323,11.5,11.5,100,0.00,OVC,OVC,0.03,WeatherDisplay:10.37,2013-01-30 19:31:00,
2013-01-30 14:36:00,55.7,55.7,0.00,West,275,18.4,18.4,100,0.00,OVC,OVC,0.03,WeatherDisplay:10.37,2013-01-30 19:36:00,
2013-01-30 14:42:00,55.8,55.8,0.00,ESE,109,7.0,7.0,100,0.00,OVC,OVC,0.03,WeatherDisplay:10.37,2013-01-30 19:42:00,
2013-01-30 14:47:00,55.8,55.8,0.00,East,83,11.5,11.5,100,0.00,OVC,OVC,0.03,WeatherDisplay:10.37,2013-01-30 19:47:00,
2013-01-30 14:52:00,55.9,55.9,0.00,WSW,239,7.6,7.6,100,0.00,OVC,OVC,0.03,WeatherDisplay:10.37,2013-01-30 19:52:00,
2013-01-30 14:57:00,56.0,56.0,0.00,NE,49,13.8,13.8,100,0.00,OVC,OVC,0.03,WeatherDisplay:10.37,2013-01-30 19:57:00,
2013-01-30 15:02:00,56.0,56.0,0.00,NW,313,5.8,5.8,100,0.00,OVC,OVC,0.03,WeatherDisplay:10.37,2013-01-30 20:02:00,
2013-01-30 15:07:00,56.0,56.0,0.00,South,172,6.9,6.9,100,0.00,OVC,OVC,0.03,WeatherDisplay:10.37,2013-01-30 20:07:00,
2013-01-30 15:12:00,55.9,55.9,0.00,NE,34,8.1,8.1,100,0.00,OVC,OVC,0.03,WeatherDisplay:10.37,2013-01-30 20:12:00,
2013-01-30 15:18:00,55.9,55.9,0.00,ENE,62,10.4,10.4,100,0.00,OVC,OVC,0.03,WeatherDisplay:10.37,2013-01-30 20:18:00,
2013-01-30 15:23:00,55.8,55.8,0.00,West,268,6.9,6.9,100,0.00,OVC,OVC,0.03,WeatherDisplay:10.37,2013-01-30 20:23:00,
2013-01-30 15:28:00,55.9,55.9,0.00,WNW,292,6.9,6.9,100,0.00,OVC,OVC,0.03,WeatherDisplay:10.37,2013-01-30 20:28:00,
2013-01-30 15:33:00,55.9,55.9,0.00,SSE,160,9.2,9.2,100,0.00,OVC,OVC,0.03,WeatherDisplay:10.37,2013-01-30 20:33:00,
2013-01-30 15:38:00,55.8,55.8,0.00,SE,127,4.6,4.6,100,0.00,OVC,OVC,0.03,WeatherDisplay:10.37,2013-01-30 20:38:00,
2013-01-30 15:44:00,55.8,55.8,0.00,NNE,30,3.5,3.5,100,0.00,OVC,OVC,0.03,WeatherDisplay:10.37,2013-01-30 20:44:00,
2013-01-30 15:49:00,55.7,55.7,0.00,SW,227,12.9,12.9,100,0.00,OVC,OVC,0.03,WeatherDisplay:10.37,2013-01-30 20:49:00,
2013-01-30 15:54:00,55.8,55.8,0.00,NNW,336,3.5,3.5,100,0.00,OVC,OVC,0.03,WeatherDisplay:10.37,2013-01-30 20:54:00,
2013-01-30 15:59:00,55.8,55.8,0.00,WSW,241,5.8,5.8,100,0.00,OVC,OVC,0.03,WeatherDisplay:10.37,2013-01-30 20:59:00,
2013-01-30 16:04:00,55.8,55.8,0.00,North,349,6.9,6.9,100,0.00,OVC,OVC,0.03,WeatherDisplay:10.37,2013-01-30 21:04:00,
2013-01-30 16:10:00,55.9,55.9,0.00,ENE,68,3.5,3.5,100,0.00,OVC,OVC,0.03,WeatherDisplay:10.37,2013-01-30 21:10:00,
2013-01-30 16:15:00,56.0,56.0,0.00,North,350,8.1,8.1,100,0.00,OVC,OVC,0.03,WeatherDisplay:10.37,2013-01-30 21:15:00,
2013-01-30 16:20:00,56.0,56.0,0.00,NNW,336,4.6,4.6,100,0.00,OVC,OVC,0.03,WeatherDisplay:10.37,2013-01-30 21:20:00,
2013-01-30 16:25:00,55.9,55.9,0.00,ESE,106,3.5,3.6,100,0.00,OVC,OVC,0.03,WeatherDisplay:10.37,2013-01-30 21:25:00,
2013-01-30 16:30:00,56.0,56.0,0.00,NE,35,8.1,8.1,100,0.00,OVC,OVC,0.03,WeatherDisplay:10.37,2013-01-30 21:30:00,
2013-01-30 16:35:00,56.0,56.0,0.00,North,350,4.6,4.6,100,0.00,OVC,OVC,0.03,WeatherDisplay:10.37,2013-01-30 21:35:00,
2013-01-30 16:40:00,56.0,56.0,0.00,NNE,18,8.1,8.1,100,0.00,OVC,OVC,0.03,WeatherDisplay:10.37,2013-01-30 21:40:00,
2013-01-30 16:45:00,56.0,56.0,0.00,NNE,31,5.8,5.8,100,0.00,OVC,OVC,0.03,WeatherDisplay:10.37,2013-01-30 21:45:00,
2013-01-30 16:51:00,56.0,56.0,0.00,East,92,4.3,4.3,100,0.00,OVC,OVC,0.03,WeatherDisplay:10.37,2013-01-30 21:51:00,
2013-01-30 16:56:00,56.0,56.0,0.00,NNW,340,5.8,5.8,100,0.00,OVC,OVC,0.03,WeatherDisplay:10.37,2013-01-30 21:56:00,
2013-01-30 17:01:00,55.9,55.9,0.00,NNE,31,9.2,9.2,100,0.00,OVC,OVC,0.03,WeatherDisplay:10.37,2013-01-30 22:01:00,
2013-01-30 17:07:00,55.9,55.9,0.00,North,360,8.1,8.1,100,0.00,OVC,OVC,0.03,WeatherDisplay:10.37,2013-01-30 22:07:00,
2013-01-30 17:12:00,56.0,56.0,0.00,NNE,30,6.9,6.9,100,0.00,OVC,OVC,0.03,WeatherDisplay:10.37,2013-01-30 22:12:00,
2013-01-30 17:17:00,56.0,56.0,0.00,SW,230,6.7,6.7,100,0.00,OVC,OVC,0.03,WeatherDisplay:10.37,2013-01-30 22:17:00,
2013-01-30 17:22:00,56.0,56.0,0.00,North,359,9.2,9.2,100,0.00,OVC,OVC,0.03,WeatherDisplay:10.37,2013-01-30 22:22:00,
2013-01-30 17:27:00,56.1,56.1,0.00,SW,230,7.0,7.0,100,0.00,OVC,OVC,0.03,WeatherDisplay:10.37,2013-01-30 22:27:00,
2013-01-30 17:32:00,56.2,56.2,0.00,NNW,333,6.9,6.9,100,0.00,OVC,OVC,0.03,WeatherDisplay:10.37,2013-01-30 22:32:00,
2013-01-30 17:37:00,56.2,56.2,0.00,North,360,5.8,5.8,100,0.00,OVC,OVC,0.03,WeatherDisplay:10.37,2013-01-30 22:37:00,
2013-01-30 17:43:00,56.3,56.3,0.00,NE,44,8.1,8.1,100,0.00,OVC,OVC,0.03,WeatherDisplay:10.37,2013-01-30 22:43:00,
2013-01-30 17:48:00,56.4,56.4,0.00,North,360,7.6,7.6,100,0.00,OVC,OVC,0.03,WeatherDisplay:10.37,2013-01-30 22:48:00,
2013-01-30 17:53:00,56.4,56.4,0.00,NNE,28,23.0,23.0,100,0.00,OVC,OVC,0.03,WeatherDisplay:10.37,2013-01-30 22:53:00,
2013-01-30 17:58:00,56.6,56.6,0.00,North,359,6.9,6.9,100,0.00,OVC,OVC,0.03,WeatherDisplay:10.37,2013-01-30 22:58:00,
2013-01-30 18:04:00,56.6,56.6,0.00,North,360,13.8,13.8,100,0.00,OVC,OVC,0.03,WeatherDisplay:10.37,2013-01-30 23:04:00,
2013-01-30 18:09:00,56.7,56.7,0.00,NNE,24,3.5,3.5,100,0.00,OVC,OVC,0.03,WeatherDisplay:10.37,2013-01-30 23:09:00,
2013-01-30 18:14:00,56.7,56.7,0.00,ESE,107,4.6,4.6,100,0.00,OVC,OVC,0.03,WeatherDisplay:10.37,2013-01-30 23:14:00,
2013-01-30 18:19:00,56.8,56.8,0.00,SE,136,5.8,5.8,100,0.00,OVC,OVC,0.03,WeatherDisplay:10.37,2013-01-30 23:19:00,
2013-01-30 18:24:00,56.8,56.8,0.00,ENE,59,9.2,9.2,100,0.00,OVC,OVC,0.03,WeatherDisplay:10.37,2013-01-30 23:24:00,
2013-01-30 18:29:00,56.8,56.8,0.00,NNE,24,6.9,6.9,100,0.00,OVC,OVC,0.03,WeatherDisplay:10.37,2013-01-30 23:29:00,
2013-01-30 18:34:00,56.9,56.9,0.00,SW,234,5.0,5.0,100,0.00,OVC,OVC,0.03,WeatherDisplay:10.37,2013-01-30 23:34:00,
2013-01-30 18:39:00,56.9,56.9,0.00,West,281,3.5,3.5,100,0.00,OVC,OVC,0.03,WeatherDisplay:10.37,2013-01-30 23:39:00,
2013-01-30 18:45:00,56.9,56.9,0.00,SW,217,11.7,11.7,100,0.00,OVC,OVC,0.03,WeatherDisplay:10.37,2013-01-30 23:45:00,
2013-01-30 18:50:00,56.9,56.9,0.00,North,11,6.9,6.9,100,0.00,OVC,OVC,0.03,WeatherDisplay:10.37,2013-01-30 23:50:00,
2013-01-30 18:55:00,57.0,57.0,0.00,NNE,17,8.1,8.1,100,0.00,OVC,OVC,0.03,WeatherDisplay:10.37,2013-01-30 23:55:00,
2013-01-30 19:00:00,57.0,57.0,0.00,ENE,61,3.5,3.5,100,0.00,OVC,OVC,0.03,WeatherDisplay:10.37,2013-01-31 00:00:00,
2013-01-30 19:05:00,57.1,57.1,0.00,ENE,61,6.9,6.9,100,0.00,OVC,OVC,0.03,WeatherDisplay:10.37,2013-01-31 00:05:00,
2013-01-30 19:10:00,57.0,57.0,0.00,North,6,4.6,4.6,100,0.00,OVC,OVC,0.03,WeatherDisplay:10.37,2013-01-31 00:10:00,
2013-01-30 19:15:00,57.1,57.1,0.00,WSW,244,9.2,9.2,100,0.00,OVC,OVC,0.03,WeatherDisplay:10.37,2013-01-31 00:15:00,
2013-01-30 19:21:00,57.2,57.2,0.00,NE,56,5.8,5.8,100,0.00,OVC,OVC,0.03,WeatherDisplay:10.37,2013-01-31 00:21:00,
2013-01-30 19:26:00,57.2,57.2,0.00,WSW,246,4.6,4.6,100,0.00,OVC,OVC,0.03,WeatherDisplay:10.37,2013-01-31 00:26:00,
2013-01-30 19:31:00,57.3,57.3,0.00,West,272,9.2,9.2,100,0.00,OVC,OVC,0.03,WeatherDisplay:10.37,2013-01-31 00:31:00,
2013-01-30 19:36:00,57.4,57.4,0.00,NE,49,12.7,12.7,100,0.00,OVC,OVC,0.03,WeatherDisplay:10.37,2013-01-31 00:36:00,
2013-01-30 19:41:00,57.4,57.4,0.00,East,79,3.5,3.5,100,0.00,OVC,OVC,0.03,WeatherDisplay:10.37,2013-01-31 00:41:00,
2013-01-30 19:46:00,57.4,57.4,0.00,NNE,32,9.2,9.2,100,0.00,OVC,OVC,0.03,WeatherDisplay:10.37,2013-01-31 00:46:00,
2013-01-30 19:51:00,57.4,57.4,0.00,WNW,301,20.7,20.7,100,0.00,OVC,OVC,0.03,WeatherDisplay:10.37,2013-01-31 00:51:00,
2013-01-30 19:56:00,57.4,57.4,0.00,North,0,4.8,4.8,100,0.00,OVC,OVC,0.03,WeatherDisplay:10.37,2013-01-31 00:56:00,
2013-01-30 20:02:00,57.4,57.4,0.00,NE,35,13.8,13.8,100,0.00,OVC,OVC,0.03,WeatherDisplay:10.37,2013-01-31 01:02:00,
2013-01-30 20:07:00,57.4,57.4,0.00,SSE,151,5.8,5.8,100,0.00,OVC,OVC,0.03,WeatherDisplay:10.37,2013-01-31 01:07:00,
2013-01-30 20:12:00,57.4,57.4,0.00,North,7,5.8,5.8,100,0.00,OVC,OVC,0.03,WeatherDisplay:10.37,2013-01-31 01:12:00,
2013-01-30 20:17:00,57.4,57.4,0.00,NNW,328,10.4,10.4,100,0.00,OVC,OVC,0.03,WeatherDisplay:10.37,2013-01-31 01:17:00,
2013-01-30 20:22:00,57.4,57.4,0.00,SSW,203,10.4,10.4,100,0.00,OVC,OVC,0.03,WeatherDisplay:10.37,2013-01-31 01:22:00,
2013-01-30 20:27:00,57.3,57.3,0.00,West,263,5.7,5.7,100,0.00,OVC,OVC,0.03,WeatherDisplay:10.37,2013-01-31 01:27:00,
2013-01-30 20:32:00,57.3,57.3,0.00,ENE,66,10.4,10.4,100,0.00,OVC,OVC,0.03,WeatherDisplay:10.37,2013-01-31 01:32:00,
2013-01-30 20:37:00,57.2,57.2,0.00,NNE,21,4.6,4.6,100,0.00,OVC,OVC,0.04,WeatherDisplay:10.37,2013-01-31 01:37:00,
2013-01-30 20:43:00,57.1,57.1,0.00,NE,45,3.8,3.8,100,0.01,RA,RA,0.04,WeatherDisplay:10.37,2013-01-31 01:43:00,
2013-01-30 20:48:00,57.1,57.1,0.00,NE,38,9.2,9.2,100,0.01,OVC,OVC,0.04,WeatherDisplay:10.37,2013-01-31 01:48:00,
2013-01-30 20:53:00,57.0,57.0,0.00,NNE,25,3.5,3.5,100,0.01,OVC,OVC,0.04,WeatherDisplay:10.37,2013-01-31 01:53:00,
2013-01-30 20:58:00,57.0,57.0,0.00,North,0,4.6,4.6,100,0.01,OVC,OVC,0.04,WeatherDisplay:10.37,2013-01-31 01:58:00,
2013-01-30 21:04:00,56.9,56.9,0.00,NNE,25,6.9,6.9,100,0.02,RA,RA,0.05,WeatherDisplay:10.37,2013-01-31 02:04:00,
2013-01-30 21:09:00,56.8,56.8,0.00,NNE,20,9.2,9.2,100,0.02,RA,RA,0.05,WeatherDisplay:10.37,2013-01-31 02:09:00,
2013-01-30 21:14:00,56.8,56.8,0.00,NNE,32,4.6,4.6,100,0.02,OVC,OVC,0.05,WeatherDisplay:10.37,2013-01-31 02:14:00,
2013-01-30 21:19:00,56.7,56.7,0.00,East,83,6.9,6.9,100,0.02,OVC,OVC,0.05,WeatherDisplay:10.37,2013-01-31 02:19:00,
2013-01-30 21:25:00,56.7,56.7,0.00,ENE,65,5.8,5.8,100,0.03,RA,RA,0.06,WeatherDisplay:10.37,2013-01-31 02:25:00,
2013-01-30 21:30:00,56.7,56.7,0.00,West,264,6.9,6.9,100,0.03,RA,RA,0.06,WeatherDisplay:10.37,2013-01-31 02:30:00,
2013-01-30 21:35:00,56.7,56.7,0.00,NW,306,4.6,4.6,100,0.03,OVC,OVC,0.06,WeatherDisplay:10.37,2013-01-31 02:35:00,
2013-01-30 21:40:00,56.6,56.6,0.00,North,360,11.5,11.5,100,0.02,OVC,OVC,0.06,WeatherDisplay:10.37,2013-01-31 02:40:00,
2013-01-30 21:45:00,56.6,56.6,0.00,ESE,107,11.5,11.5,100,0.02,OVC,OVC,0.06,WeatherDisplay:10.37,2013-01-31 02:45:00,
2013-01-30 21:50:00,56.6,56.6,0.00,NNE,14,10.4,10.4,100,0.02,OVC,OVC,0.06,WeatherDisplay:10.37,2013-01-31 02:50:00,
2013-01-30 21:55:00,56.6,56.6,0.00,NNE,30,4.6,4.6,100,0.02,OVC,OVC,0.06,WeatherDisplay:10.37,2013-01-31 02:55:00,
2013-01-30 22:01:00,56.5,56.5,0.00,NW,304,5.8,5.8,100,0.02,OVC,OVC,0.06,WeatherDisplay:10.37,2013-01-31 03:01:00,
2013-01-30 22:06:00,56.4,56.4,0.00,ESE,121,5.8,5.8,100,0.01,OVC,OVC,0.06,WeatherDisplay:10.37,2013-01-31 03:06:00,
2013-01-30 22:11:00,56.3,56.3,0.00,ESE,113,10.4,10.4,100,0.01,OVC,OVC,0.06,WeatherDisplay:10.37,2013-01-31 03:11:00,
2013-01-30 22:16:00,56.4,56.4,0.00,WSW,239,10.4,10.4,100,0.01,OVC,OVC,0.06,WeatherDisplay:10.37,2013-01-31 03:16:00,
2013-01-30 22:21:00,56.3,56.3,0.00,North,7,9.2,9.2,100,0.01,OVC,OVC,0.06,WeatherDisplay:10.37,2013-01-31 03:21:00,
2013-01-30 22:27:00,56.3,56.3,0.00,NE,51,4.6,4.6,100,0.00,OVC,OVC,0.06,WeatherDisplay:10.37,2013-01-31 03:27:00,
2013-01-30 22:32:00,56.3,56.3,0.00,West,274,6.5,6.5,100,0.00,OVC,OVC,0.06,WeatherDisplay:10.37,2013-01-31 03:32:00,
2013-01-30 22:37:00,56.3,56.3,0.00,South,175,2.3,2.3,100,0.00,OVC,OVC,0.06,WeatherDisplay:10.37,2013-01-31 03:37:00,
2013-01-30 22:42:00,56.3,56.3,0.00,NNW,342,1.2,1.2,100,0.00,OVC,OVC,0.06,WeatherDisplay:10.37,2013-01-31 03:42:00,
2013-01-30 22:47:00,56.3,56.3,0.00,WSW,243,9.2,9.2,100,0.01,RA,RA,0.07,WeatherDisplay:10.37,2013-01-31 03:47:00,
2013-01-30 22:52:00,56.3,56.3,0.00,SE,145,3.0,3.8,100,0.01,RA,RA,0.07,WeatherDisplay:10.37,2013-01-31 03:52:00,
2013-01-30 22:58:00,56.3,56.3,0.00,NW,306,4.6,4.6,100,0.01,OVC,OVC,0.07,WeatherDisplay:10.37,2013-01-31 03:58:00,
2013-01-30 23:03:00,56.3,56.3,0.00,NW,320,10.4,10.4,100,0.01,OVC,OVC,0.07,WeatherDisplay:10.37,2013-01-31 04:03:00,
2013-01-30 23:08:00,56.3,56.3,0.00,SSE,152,8.1,8.1,100,0.01,OVC,OVC,0.07,WeatherDisplay:10.37,2013-01-31 04:08:00,
2013-01-30 23:13:00,56.5,56.5,0.00,NE,51,3.5,3.5,100,0.01,OVC,OVC,0.07,WeatherDisplay:10.37,2013-01-31 04:13:00,
2013-01-30 23:18:00,56.4,56.4,0.00,NE,52,4.6,4.6,100,0.01,OVC,OVC,0.07,WeatherDisplay:10.37,2013-01-31 04:18:00,
2013-01-30 23:23:00,56.5,56.5,0.00,NNW,328,4.6,4.6,100,0.01,OVC,OVC,0.07,WeatherDisplay:10.37,2013-01-31 04:23:00,
2013-01-30 23:28:00,56.6,56.6,0.00,NNW,335,16.1,16.1,100,0.01,OVC,OVC,0.07,WeatherDisplay:10.37,2013-01-31 04:28:00,
2013-01-30 23:34:00,56.6,56.6,0.00,North,4,5.8,5.8,100,0.01,OVC,OVC,0.07,WeatherDisplay:10.37,2013-01-31 04:34:00,
2013-01-30 23:39:00,56.7,56.7,0.00,NW,326,10.4,10.4,100,0.01,OVC,OVC,0.07,WeatherDisplay:10.37,2013-01-31 04:39:00,
2013-01-30 23:44:00,56.8,56.8,0.00,NE,40,5.8,5.8,100,0.01,OVC,OVC,0.07,WeatherDisplay:10.37,2013-01-31 04:44:00,
2013-01-30 23:49:00,56.7,56.7,0.00,West,271,9.2,9.2,100,0.00,OVC,OVC,0.07,WeatherDisplay:10.37,2013-01-31 04:49:00,
2013-01-30 23:54:00,56.8,56.8,0.00,ESE,104,9.2,9.2,100,0.01,RA,RA,0.08,WeatherDisplay:10.37,2013-01-31 04:54:00,
2013-01-30 23:59:00,56.9,56.9,0.00,NNE,23,4.6,4.6,100,0.01,RA,RA,0.08,WeatherDisplay:10.37,2013-01-31 04:59:00,